sensor_id;sensor_type;location;lat;lon;timestamp;temperature;humidity
29939;DHT22;16799;50.844;5.304;2023-04-03T00:01:31;2.40;99.90
29939;DHT22;16799;50.844;5.304;2023-04-03T00:03:57;2.40;99.90
29939;DHT22;16799;50.844;5.304;2023-04-03T00:06:23;2.30;99.90
29939;DHT22;16799;50.844;5.304;2023-04-03T00:08:50;2.30;99.90
29939;DHT22;16799;50.844;5.304;2023-04-03T00:11:16;2.20;99.90
29939;DHT22;16799;50.844;5.304;2023-04-03T00:13:42;2.30;99.90
29939;DHT22;16799;50.844;5.304;2023-04-03T00:16:09;2.10;99.90
29939;DHT22;16799;50.844;5.304;2023-04-03T00:18:36;2.10;99.90
29939;DHT22;16799;50.844;5.304;2023-04-03T00:21:03;2.10;99.90
29939;DHT22;16799;50.844;5.304;2023-04-03T00:23:29;2.10;99.90
29939;DHT22;16799;50.844;5.304;2023-04-03T00:25:55;2.20;99.90
29939;DHT22;16799;50.844;5.304;2023-04-03T00:28:21;2.20;99.90
29939;DHT22;16799;50.844;5.304;2023-04-03T00:30:49;2.20;99.90
29939;DHT22;16799;50.844;5.304;2023-04-03T00:33:15;2.10;99.90
29939;DHT22;16799;50.844;5.304;2023-04-03T00:35:41;2.10;99.90
29939;DHT22;16799;50.844;5.304;2023-04-03T00:38:07;2.00;99.90
29939;DHT22;16799;50.844;5.304;2023-04-03T00:40:35;2.10;99.90
29939;DHT22;16799;50.844;5.304;2023-04-03T00:43:01;2.00;99.90
29939;DHT22;16799;50.844;5.304;2023-04-03T00:47:57;1.80;99.90
29939;DHT22;16799;50.844;5.304;2023-04-03T00:50:25;1.70;99.90
29939;DHT22;16799;50.844;5.304;2023-04-03T00:52:51;1.70;99.90
29939;DHT22;16799;50.844;5.304;2023-04-03T00:55:17;1.70;99.90
29939;DHT22;16799;50.844;5.304;2023-04-03T00:57:44;1.60;99.90
29939;DHT22;16799;50.844;5.304;2023-04-03T01:00:15;1.60;99.90
29939;DHT22;16799;50.844;5.304;2023-04-03T01:02:41;1.60;99.90
29939;DHT22;16799;50.844;5.304;2023-04-03T01:05:08;1.60;99.90
29939;DHT22;16799;50.844;5.304;2023-04-03T01:07:34;1.60;99.90
29939;DHT22;16799;50.844;5.304;2023-04-03T01:10:05;1.40;99.90
29939;DHT22;16799;50.844;5.304;2023-04-03T01:12:35;1.40;99.90
29939;DHT22;16799;50.844;5.304;2023-04-03T01:15:10;1.40;99.90
29939;DHT22;16799;50.844;5.304;2023-04-03T01:17:45;1.40;99.90
29939;DHT22;16799;50.844;5.304;2023-04-03T01:22:53;1.30;99.90
29939;DHT22;16799;50.844;5.304;2023-04-03T01:25:21;1.30;99.90
29939;DHT22;16799;50.844;5.304;2023-04-03T01:27:47;1.30;99.90
29939;DHT22;16799;50.844;5.304;2023-04-03T01:30:15;1.30;99.90
29939;DHT22;16799;50.844;5.304;2023-04-03T01:32:42;1.30;99.90
29939;DHT22;16799;50.844;5.304;2023-04-03T01:35:09;1.30;99.90
29939;DHT22;16799;50.844;5.304;2023-04-03T01:37:35;1.30;99.90
29939;DHT22;16799;50.844;5.304;2023-04-03T01:40:01;1.30;99.90
29939;DHT22;16799;50.844;5.304;2023-04-03T01:42:27;1.20;99.90
29939;DHT22;16799;50.844;5.304;2023-04-03T01:44:53;1.20;99.90
29939;DHT22;16799;50.844;5.304;2023-04-03T01:47:18;1.00;99.90
29939;DHT22;16799;50.844;5.304;2023-04-03T01:49:44;1.10;99.90
29939;DHT22;16799;50.844;5.304;2023-04-03T01:52:10;1.10;99.90
29939;DHT22;16799;50.844;5.304;2023-04-03T01:54:36;1.20;99.90
29939;DHT22;16799;50.844;5.304;2023-04-03T01:57:02;1.10;99.90
29939;DHT22;16799;50.844;5.304;2023-04-03T01:59:27;1.20;99.90
29939;DHT22;16799;50.844;5.304;2023-04-03T02:01:53;1.10;99.90
29939;DHT22;16799;50.844;5.304;2023-04-03T02:04:19;1.00;99.90
29939;DHT22;16799;50.844;5.304;2023-04-03T02:06:45;1.00;99.90
29939;DHT22;16799;50.844;5.304;2023-04-03T02:09:10;1.00;99.90
29939;DHT22;16799;50.844;5.304;2023-04-03T02:11:36;1.00;99.90
29939;DHT22;16799;50.844;5.304;2023-04-03T02:14:02;0.90;99.90
29939;DHT22;16799;50.844;5.304;2023-04-03T02:16:28;0.80;99.90
29939;DHT22;16799;50.844;5.304;2023-04-03T02:18:54;0.80;99.90
29939;DHT22;16799;50.844;5.304;2023-04-03T02:21:20;0.80;99.90
29939;DHT22;16799;50.844;5.304;2023-04-03T02:23:46;0.90;99.90
29939;DHT22;16799;50.844;5.304;2023-04-03T02:26:13;0.80;99.90
29939;DHT22;16799;50.844;5.304;2023-04-03T02:28:40;0.80;99.90
29939;DHT22;16799;50.844;5.304;2023-04-03T02:31:07;0.90;99.90
29939;DHT22;16799;50.844;5.304;2023-04-03T02:33:34;0.80;99.90
29939;DHT22;16799;50.844;5.304;2023-04-03T02:36:02;0.70;99.90
29939;DHT22;16799;50.844;5.304;2023-04-03T02:38:28;0.70;99.90
29939;DHT22;16799;50.844;5.304;2023-04-03T02:41:03;0.70;99.90
29939;DHT22;16799;50.844;5.304;2023-04-03T02:43:29;0.70;99.90
29939;DHT22;16799;50.844;5.304;2023-04-03T02:45:55;0.80;99.90
29939;DHT22;16799;50.844;5.304;2023-04-03T02:48:21;0.80;99.90
29939;DHT22;16799;50.844;5.304;2023-04-03T02:50:46;0.70;99.90
29939;DHT22;16799;50.844;5.304;2023-04-03T02:53:12;0.60;99.90
29939;DHT22;16799;50.844;5.304;2023-04-03T02:55:38;0.50;99.90
29939;DHT22;16799;50.844;5.304;2023-04-03T02:58:03;0.50;99.90
29939;DHT22;16799;50.844;5.304;2023-04-03T03:00:29;0.50;99.90
29939;DHT22;16799;50.844;5.304;2023-04-03T03:02:55;0.40;99.90
29939;DHT22;16799;50.844;5.304;2023-04-03T03:05:21;0.40;99.90
29939;DHT22;16799;50.844;5.304;2023-04-03T03:07:47;0.30;99.90
29939;DHT22;16799;50.844;5.304;2023-04-03T03:10:13;0.10;99.90
29939;DHT22;16799;50.844;5.304;2023-04-03T03:12:38;0.10;99.90
29939;DHT22;16799;50.844;5.304;2023-04-03T03:15:06;0.20;99.90
29939;DHT22;16799;50.844;5.304;2023-04-03T03:17:32;0.30;99.90
29939;DHT22;16799;50.844;5.304;2023-04-03T03:19:58;0.30;99.90
29939;DHT22;16799;50.844;5.304;2023-04-03T03:22:24;0.20;99.90
29939;DHT22;16799;50.844;5.304;2023-04-03T03:24:50;0.10;99.90
29939;DHT22;16799;50.844;5.304;2023-04-03T03:27:16;0.20;99.90
29939;DHT22;16799;50.844;5.304;2023-04-03T03:29:42;0.20;99.90
29939;DHT22;16799;50.844;5.304;2023-04-03T03:32:08;0.30;99.90
29939;DHT22;16799;50.844;5.304;2023-04-03T03:34:34;0.40;99.90
29939;DHT22;16799;50.844;5.304;2023-04-03T03:37:00;0.30;99.90
29939;DHT22;16799;50.844;5.304;2023-04-03T03:39:25;0.30;99.90
29939;DHT22;16799;50.844;5.304;2023-04-03T03:41:51;0.30;99.90
29939;DHT22;16799;50.844;5.304;2023-04-03T03:44:19;0.30;99.90
29939;DHT22;16799;50.844;5.304;2023-04-03T03:46:45;0.20;99.90
29939;DHT22;16799;50.844;5.304;2023-04-03T03:49:10;0.20;99.90
29939;DHT22;16799;50.844;5.304;2023-04-03T03:51:37;0.20;99.90
29939;DHT22;16799;50.844;5.304;2023-04-03T03:54:03;0.20;99.90
29939;DHT22;16799;50.844;5.304;2023-04-03T03:56:29;0.20;99.90
29939;DHT22;16799;50.844;5.304;2023-04-03T03:58:55;0.20;99.90
29939;DHT22;16799;50.844;5.304;2023-04-03T04:01:22;0.20;99.90
29939;DHT22;16799;50.844;5.304;2023-04-03T04:03:48;0.20;99.90
29939;DHT22;16799;50.844;5.304;2023-04-03T04:06:14;0.20;99.90
29939;DHT22;16799;50.844;5.304;2023-04-03T04:08:40;0.10;99.90
29939;DHT22;16799;50.844;5.304;2023-04-03T04:11:06;0.10;99.90
29939;DHT22;16799;50.844;5.304;2023-04-03T04:13:32;0.10;99.90
29939;DHT22;16799;50.844;5.304;2023-04-03T04:15:57;0.10;99.90
29939;DHT22;16799;50.844;5.304;2023-04-03T04:18:23;0.20;99.90
29939;DHT22;16799;50.844;5.304;2023-04-03T04:20:49;0.10;99.90
29939;DHT22;16799;50.844;5.304;2023-04-03T04:23:16;0.10;99.90
29939;DHT22;16799;50.844;5.304;2023-04-03T04:25:45;0.10;99.90
29939;DHT22;16799;50.844;5.304;2023-04-03T04:28:11;-0.10;99.90
29939;DHT22;16799;50.844;5.304;2023-04-03T04:30:37;-0.10;99.90
29939;DHT22;16799;50.844;5.304;2023-04-03T04:33:03;-0.10;99.90
29939;DHT22;16799;50.844;5.304;2023-04-03T04:35:28;-0.10;99.90
29939;DHT22;16799;50.844;5.304;2023-04-03T04:37:54;-0.20;99.90
29939;DHT22;16799;50.844;5.304;2023-04-03T04:40:20;-0.30;99.90
29939;DHT22;16799;50.844;5.304;2023-04-03T04:42:46;-0.20;99.90
29939;DHT22;16799;50.844;5.304;2023-04-03T04:45:12;-0.10;99.90
29939;DHT22;16799;50.844;5.304;2023-04-03T04:47:37;0.00;99.90
29939;DHT22;16799;50.844;5.304;2023-04-03T04:50:03;-0.10;99.90
29939;DHT22;16799;50.844;5.304;2023-04-03T04:52:29;-0.10;99.90
29939;DHT22;16799;50.844;5.304;2023-04-03T04:54:55;0.00;99.90
29939;DHT22;16799;50.844;5.304;2023-04-03T04:57:21;0.00;99.90
29939;DHT22;16799;50.844;5.304;2023-04-03T04:59:46;0.00;99.90
29939;DHT22;16799;50.844;5.304;2023-04-03T05:02:12;0.10;99.90
29939;DHT22;16799;50.844;5.304;2023-04-03T05:04:38;0.10;99.90
29939;DHT22;16799;50.844;5.304;2023-04-03T05:07:04;0.20;99.90
29939;DHT22;16799;50.844;5.304;2023-04-03T05:09:30;0.10;99.90
29939;DHT22;16799;50.844;5.304;2023-04-03T05:11:55;0.20;99.90
29939;DHT22;16799;50.844;5.304;2023-04-03T05:14:22;0.10;99.90
29939;DHT22;16799;50.844;5.304;2023-04-03T05:16:47;0.20;99.90
29939;DHT22;16799;50.844;5.304;2023-04-03T05:19:13;0.20;99.90
29939;DHT22;16799;50.844;5.304;2023-04-03T05:21:39;0.10;99.90
29939;DHT22;16799;50.844;5.304;2023-04-03T05:24:05;0.10;99.90
29939;DHT22;16799;50.844;5.304;2023-04-03T05:26:34;0.20;99.90
29939;DHT22;16799;50.844;5.304;2023-04-03T05:29:00;0.10;99.90
29939;DHT22;16799;50.844;5.304;2023-04-03T05:31:26;0.10;99.90
29939;DHT22;16799;50.844;5.304;2023-04-03T05:33:54;0.10;99.90
29939;DHT22;16799;50.844;5.304;2023-04-03T05:36:21;0.20;99.90
29939;DHT22;16799;50.844;5.304;2023-04-03T05:38:47;0.20;99.90
29939;DHT22;16799;50.844;5.304;2023-04-03T05:41:13;0.20;99.90
29939;DHT22;16799;50.844;5.304;2023-04-03T05:43:39;0.50;99.90
29939;DHT22;16799;50.844;5.304;2023-04-03T05:46:12;0.50;99.90
29939;DHT22;16799;50.844;5.304;2023-04-03T05:48:38;0.50;99.90
29939;DHT22;16799;50.844;5.304;2023-04-03T05:51:05;0.50;99.90
29939;DHT22;16799;50.844;5.304;2023-04-03T05:53:33;0.50;99.90
29939;DHT22;16799;50.844;5.304;2023-04-03T05:56:00;0.60;99.90
29939;DHT22;16799;50.844;5.304;2023-04-03T05:58:26;0.70;99.90
29939;DHT22;16799;50.844;5.304;2023-04-03T06:00:51;0.80;99.90
29939;DHT22;16799;50.844;5.304;2023-04-03T06:03:17;0.70;99.90
29939;DHT22;16799;50.844;5.304;2023-04-03T06:05:43;0.80;99.90
29939;DHT22;16799;50.844;5.304;2023-04-03T06:08:09;0.90;99.90
29939;DHT22;16799;50.844;5.304;2023-04-03T06:10:35;1.00;99.90
29939;DHT22;16799;50.844;5.304;2023-04-03T06:13:01;1.10;99.90
29939;DHT22;16799;50.844;5.304;2023-04-03T06:15:27;1.20;99.90
29939;DHT22;16799;50.844;5.304;2023-04-03T06:17:53;1.40;99.90
29939;DHT22;16799;50.844;5.304;2023-04-03T06:20:19;1.60;99.90
29939;DHT22;16799;50.844;5.304;2023-04-03T06:22:45;1.60;99.90
29939;DHT22;16799;50.844;5.304;2023-04-03T06:25:11;2.00;99.90
29939;DHT22;16799;50.844;5.304;2023-04-03T06:27:37;2.50;99.90
29939;DHT22;16799;50.844;5.304;2023-04-03T06:30:04;2.60;99.90
29939;DHT22;16799;50.844;5.304;2023-04-03T06:32:30;2.60;99.90
29939;DHT22;16799;50.844;5.304;2023-04-03T06:34:56;2.50;99.90
29939;DHT22;16799;50.844;5.304;2023-04-03T06:37:23;2.60;99.90
29939;DHT22;16799;50.844;5.304;2023-04-03T06:39:51;2.50;99.90
29939;DHT22;16799;50.844;5.304;2023-04-03T06:42:17;2.50;99.90
29939;DHT22;16799;50.844;5.304;2023-04-03T06:44:43;2.70;99.90
29939;DHT22;16799;50.844;5.304;2023-04-03T06:47:12;2.80;99.90
29939;DHT22;16799;50.844;5.304;2023-04-03T06:49:38;2.90;99.90
29939;DHT22;16799;50.844;5.304;2023-04-03T06:52:04;3.00;99.90
29939;DHT22;16799;50.844;5.304;2023-04-03T06:54:31;3.10;99.90
29939;DHT22;16799;50.844;5.304;2023-04-03T06:56:56;3.10;99.90
29939;DHT22;16799;50.844;5.304;2023-04-03T06:59:22;3.10;99.90
29939;DHT22;16799;50.844;5.304;2023-04-03T07:01:48;3.20;99.90
29939;DHT22;16799;50.844;5.304;2023-04-03T07:04:14;3.50;99.90
29939;DHT22;16799;50.844;5.304;2023-04-03T07:06:40;3.60;99.90
29939;DHT22;16799;50.844;5.304;2023-04-03T07:09:09;3.80;99.90
29939;DHT22;16799;50.844;5.304;2023-04-03T07:11:35;4.00;99.90
29939;DHT22;16799;50.844;5.304;2023-04-03T07:14:01;3.80;99.90
29939;DHT22;16799;50.844;5.304;2023-04-03T07:16:27;3.90;99.90
29939;DHT22;16799;50.844;5.304;2023-04-03T07:18:53;4.10;99.90
29939;DHT22;16799;50.844;5.304;2023-04-03T07:21:18;4.20;99.90
29939;DHT22;16799;50.844;5.304;2023-04-03T07:23:44;4.30;99.90
29939;DHT22;16799;50.844;5.304;2023-04-03T07:26:10;4.60;99.90
29939;DHT22;16799;50.844;5.304;2023-04-03T07:28:35;4.50;99.90
29939;DHT22;16799;50.844;5.304;2023-04-03T07:31:07;4.50;99.90
29939;DHT22;16799;50.844;5.304;2023-04-03T07:33:34;4.40;99.90
29939;DHT22;16799;50.844;5.304;2023-04-03T07:36:01;4.50;99.90
29939;DHT22;16799;50.844;5.304;2023-04-03T07:38:26;4.70;99.90
29939;DHT22;16799;50.844;5.304;2023-04-03T07:40:52;4.80;99.90
29939;DHT22;16799;50.844;5.304;2023-04-03T07:43:19;4.80;99.90
29939;DHT22;16799;50.844;5.304;2023-04-03T07:45:46;4.90;99.90
29939;DHT22;16799;50.844;5.304;2023-04-03T07:48:15;5.10;99.90
29939;DHT22;16799;50.844;5.304;2023-04-03T07:50:43;5.30;99.90
29939;DHT22;16799;50.844;5.304;2023-04-03T07:53:09;5.50;99.90
29939;DHT22;16799;50.844;5.304;2023-04-03T07:55:35;5.60;99.90
29939;DHT22;16799;50.844;5.304;2023-04-03T07:58:11;5.70;99.90
29939;DHT22;16799;50.844;5.304;2023-04-03T08:00:38;5.90;99.90
29939;DHT22;16799;50.844;5.304;2023-04-03T08:03:05;5.80;99.90
29939;DHT22;16799;50.844;5.304;2023-04-03T08:05:31;6.00;99.90
29939;DHT22;16799;50.844;5.304;2023-04-03T08:07:57;6.00;99.90
29939;DHT22;16799;50.844;5.304;2023-04-03T08:10:22;6.00;99.90
29939;DHT22;16799;50.844;5.304;2023-04-03T08:12:48;6.00;99.90
29939;DHT22;16799;50.844;5.304;2023-04-03T08:15:14;6.20;99.90
29939;DHT22;16799;50.844;5.304;2023-04-03T08:17:40;6.20;99.90
29939;DHT22;16799;50.844;5.304;2023-04-03T08:20:07;6.50;99.90
29939;DHT22;16799;50.844;5.304;2023-04-03T08:22:33;6.30;99.90
29939;DHT22;16799;50.844;5.304;2023-04-03T08:24:59;6.50;99.90
29939;DHT22;16799;50.844;5.304;2023-04-03T08:27:26;6.70;99.90
29939;DHT22;16799;50.844;5.304;2023-04-03T08:29:52;6.70;99.90
29939;DHT22;16799;50.844;5.304;2023-04-03T08:32:18;7.00;99.90
29939;DHT22;16799;50.844;5.304;2023-04-03T08:34:44;7.00;99.90
29939;DHT22;16799;50.844;5.304;2023-04-03T08:37:10;7.00;99.90
29939;DHT22;16799;50.844;5.304;2023-04-03T08:39:36;7.10;99.90
29939;DHT22;16799;50.844;5.304;2023-04-03T08:42:14;7.30;99.90
29939;DHT22;16799;50.844;5.304;2023-04-03T08:44:56;7.50;99.90
29939;DHT22;16799;50.844;5.304;2023-04-03T08:47:58;7.60;99.90
29939;DHT22;16799;50.844;5.304;2023-04-03T08:50:21;7.70;99.90
29939;DHT22;16799;50.844;5.304;2023-04-03T08:52:55;7.80;99.90
29939;DHT22;16799;50.844;5.304;2023-04-03T08:55:33;8.00;99.90
29939;DHT22;16799;50.844;5.304;2023-04-03T08:58:09;8.10;99.90
29939;DHT22;16799;50.844;5.304;2023-04-03T09:03:30;7.90;99.90
29939;DHT22;16799;50.844;5.304;2023-04-03T09:09:13;8.00;99.90
29939;DHT22;16799;50.844;5.304;2023-04-03T09:11:57;8.20;99.90
29939;DHT22;16799;50.844;5.304;2023-04-03T09:14:50;8.40;99.90
29939;DHT22;16799;50.844;5.304;2023-04-03T09:22:50;8.80;99.90
29939;DHT22;16799;50.844;5.304;2023-04-03T09:25:36;8.70;99.90
29939;DHT22;16799;50.844;5.304;2023-04-03T09:28:02;8.70;99.90
29939;DHT22;16799;50.844;5.304;2023-04-03T09:30:28;8.90;99.10
29939;DHT22;16799;50.844;5.304;2023-04-03T09:32:56;8.70;99.90
29939;DHT22;16799;50.844;5.304;2023-04-03T09:35:36;8.70;98.90
29939;DHT22;16799;50.844;5.304;2023-04-03T09:40:49;8.80;94.90
29939;DHT22;16799;50.844;5.304;2023-04-03T09:45:48;9.10;96.80
29939;DHT22;16799;50.844;5.304;2023-04-03T09:51:02;9.10;95.90
29939;DHT22;16799;50.844;5.304;2023-04-03T09:53:43;9.20;93.30
29939;DHT22;16799;50.844;5.304;2023-04-03T09:58:43;9.10;95.90
29939;DHT22;16799;50.844;5.304;2023-04-03T10:01:29;9.30;97.00
29939;DHT22;16799;50.844;5.304;2023-04-03T10:04:16;9.30;96.50
29939;DHT22;16799;50.844;5.304;2023-04-03T10:07:02;9.30;94.40
29939;DHT22;16799;50.844;5.304;2023-04-03T10:09:31;9.20;92.90
29939;DHT22;16799;50.844;5.304;2023-04-03T10:12:05;9.30;94.20
29939;DHT22;16799;50.844;5.304;2023-04-03T10:14:35;9.60;95.50
29939;DHT22;16799;50.844;5.304;2023-04-03T10:22:42;10.20;91.90
29939;DHT22;16799;50.844;5.304;2023-04-03T10:28:48;11.20;81.40
29939;DHT22;16799;50.844;5.304;2023-04-03T10:31:36;11.20;81.90
29939;DHT22;16799;50.844;5.304;2023-04-03T10:33:51;11.30;82.40
29939;DHT22;16799;50.844;5.304;2023-04-03T10:36:43;12.40;87.20
29939;DHT22;16799;50.844;5.304;2023-04-03T10:39:20;13.70;79.80
29939;DHT22;16799;50.844;5.304;2023-04-03T10:41:57;14.30;68.70
29939;DHT22;16799;50.844;5.304;2023-04-03T10:44:49;14.80;64.60
29939;DHT22;16799;50.844;5.304;2023-04-03T10:47:30;14.60;58.90
29939;DHT22;16799;50.844;5.304;2023-04-03T10:59:31;13.00;55.50
29939;DHT22;16799;50.844;5.304;2023-04-03T11:02:00;13.30;60.10
29939;DHT22;16799;50.844;5.304;2023-04-03T11:04:31;13.70;52.20
29939;DHT22;16799;50.844;5.304;2023-04-03T11:07:10;13.60;59.60
29939;DHT22;16799;50.844;5.304;2023-04-03T11:09:41;13.40;52.70
29939;DHT22;16799;50.844;5.304;2023-04-03T11:12:40;13.40;53.70
29939;DHT22;16799;50.844;5.304;2023-04-03T11:15:16;13.60;54.90
29939;DHT22;16799;50.844;5.304;2023-04-03T11:17:55;14.30;54.40
29939;DHT22;16799;50.844;5.304;2023-04-03T11:20:30;15.50;57.80
29939;DHT22;16799;50.844;5.304;2023-04-03T11:23:34;15.90;53.50
29939;DHT22;16799;50.844;5.304;2023-04-03T11:26:16;15.80;50.00
29939;DHT22;16799;50.844;5.304;2023-04-03T11:28:42;16.10;55.80
29939;DHT22;16799;50.844;5.304;2023-04-03T11:37:00;16.60;54.00
29939;DHT22;16799;50.844;5.304;2023-04-03T11:39:34;16.90;54.40
29939;DHT22;16799;50.844;5.304;2023-04-03T11:42:16;17.90;49.00
29939;DHT22;16799;50.844;5.304;2023-04-03T11:44:47;18.20;46.40
29939;DHT22;16799;50.844;5.304;2023-04-03T11:50:51;18.50;49.90
29939;DHT22;16799;50.844;5.304;2023-04-03T11:55:52;18.50;47.50
29939;DHT22;16799;50.844;5.304;2023-04-03T11:58:33;17.70;47.40
29939;DHT22;16799;50.844;5.304;2023-04-03T12:16:29;19.10;45.00
29939;DHT22;16799;50.844;5.304;2023-04-03T12:19:00;19.40;45.50
29939;DHT22;16799;50.844;5.304;2023-04-03T12:26:51;19.00;45.10
29939;DHT22;16799;50.844;5.304;2023-04-03T12:40:09;20.60;44.70
29939;DHT22;16799;50.844;5.304;2023-04-03T12:46:02;20.00;44.10
29939;DHT22;16799;50.844;5.304;2023-04-03T12:48:31;18.80;42.80
29939;DHT22;16799;50.844;5.304;2023-04-03T12:50:59;17.90;40.70
29939;DHT22;16799;50.844;5.304;2023-04-03T12:53:32;18.60;44.30
29939;DHT22;16799;50.844;5.304;2023-04-03T12:56:20;19.20;43.80
29939;DHT22;16799;50.844;5.304;2023-04-03T12:58:53;20.10;43.70
29939;DHT22;16799;50.844;5.304;2023-04-03T13:01:21;19.80;40.60
29939;DHT22;16799;50.844;5.304;2023-04-03T13:03:54;20.10;44.50
29939;DHT22;16799;50.844;5.304;2023-04-03T13:06:38;19.50;44.00
29939;DHT22;16799;50.844;5.304;2023-04-03T13:09:06;19.80;39.70
29939;DHT22;16799;50.844;5.304;2023-04-03T13:11:43;18.60;42.30
29939;DHT22;16799;50.844;5.304;2023-04-03T13:14:22;19.00;40.80
29939;DHT22;16799;50.844;5.304;2023-04-03T13:19:23;19.60;41.60
29939;DHT22;16799;50.844;5.304;2023-04-03T13:21:50;20.40;43.10
29939;DHT22;16799;50.844;5.304;2023-04-03T13:24:19;20.10;39.50
29939;DHT22;16799;50.844;5.304;2023-04-03T13:26:45;19.30;44.80
29939;DHT22;16799;50.844;5.304;2023-04-03T13:29:28;19.70;42.50
29939;DHT22;16799;50.844;5.304;2023-04-03T13:31:55;20.80;42.30
29939;DHT22;16799;50.844;5.304;2023-04-03T13:34:22;21.30;42.90
29939;DHT22;16799;50.844;5.304;2023-04-03T13:37:01;20.90;42.20
29939;DHT22;16799;50.844;5.304;2023-04-03T13:39:37;20.60;41.70
29939;DHT22;16799;50.844;5.304;2023-04-03T13:42:28;21.60;40.50
29939;DHT22;16799;50.844;5.304;2023-04-03T13:45:24;21.70;39.70
29939;DHT22;16799;50.844;5.304;2023-04-03T13:48:06;19.30;37.70
29939;DHT22;16799;50.844;5.304;2023-04-03T13:50:33;18.70;42.60
29939;DHT22;16799;50.844;5.304;2023-04-03T13:53:09;19.20;41.40
29939;DHT22;16799;50.844;5.304;2023-04-03T13:56:37;19.50;40.20
29939;DHT22;16799;50.844;5.304;2023-04-03T13:58:37;19.30;39.70
29939;DHT22;16799;50.844;5.304;2023-04-03T14:01:14;19.00;40.00
29939;DHT22;16799;50.844;5.304;2023-04-03T14:06:17;17.60;43.40
29939;DHT22;16799;50.844;5.304;2023-04-03T14:08:44;19.10;41.50
29939;DHT22;16799;50.844;5.304;2023-04-03T14:13:42;18.80;39.10
29939;DHT22;16799;50.844;5.304;2023-04-03T14:16:12;19.30;41.10
29939;DHT22;16799;50.844;5.304;2023-04-03T14:18:38;19.70;41.70
29939;DHT22;16799;50.844;5.304;2023-04-03T14:21:04;18.70;36.30
29939;DHT22;16799;50.844;5.304;2023-04-03T14:23:30;20.10;43.40
29939;DHT22;16799;50.844;5.304;2023-04-03T14:25:56;21.20;40.70
29939;DHT22;16799;50.844;5.304;2023-04-03T14:28:22;20.90;36.10
29939;DHT22;16799;50.844;5.304;2023-04-03T14:30:50;20.90;40.10
29939;DHT22;16799;50.844;5.304;2023-04-03T14:33:19;21.30;41.20
29939;DHT22;16799;50.844;5.304;2023-04-03T14:35:45;21.60;39.90
29939;DHT22;16799;50.844;5.304;2023-04-03T14:40:49;20.60;37.80
29939;DHT22;16799;50.844;5.304;2023-04-03T14:43:15;21.20;36.90
29939;DHT22;16799;50.844;5.304;2023-04-03T14:45:40;21.10;39.50
29939;DHT22;16799;50.844;5.304;2023-04-03T14:48:12;21.70;39.00
29939;DHT22;16799;50.844;5.304;2023-04-03T14:50:41;21.30;37.60
29939;DHT22;16799;50.844;5.304;2023-04-03T14:53:07;20.10;35.50
29939;DHT22;16799;50.844;5.304;2023-04-03T14:55:33;20.50;39.90
29939;DHT22;16799;50.844;5.304;2023-04-03T14:57:58;21.10;37.10
29939;DHT22;16799;50.844;5.304;2023-04-03T15:00:24;21.10;37.00
29939;DHT22;16799;50.844;5.304;2023-04-03T15:02:50;21.80;39.50
29939;DHT22;16799;50.844;5.304;2023-04-03T15:05:16;21.80;36.60
29939;DHT22;16799;50.844;5.304;2023-04-03T15:07:52;21.20;34.20
29939;DHT22;16799;50.844;5.304;2023-04-03T15:10:29;20.50;35.10
29939;DHT22;16799;50.844;5.304;2023-04-03T15:12:56;18.20;35.90
29939;DHT22;16799;50.844;5.304;2023-04-03T15:15:23;18.00;38.40
29939;DHT22;16799;50.844;5.304;2023-04-03T15:17:54;17.30;38.20
29939;DHT22;16799;50.844;5.304;2023-04-03T15:20:23;16.00;40.50
29939;DHT22;16799;50.844;5.304;2023-04-03T15:22:49;15.40;43.20
29939;DHT22;16799;50.844;5.304;2023-04-03T15:25:15;14.90;43.40
29939;DHT22;16799;50.844;5.304;2023-04-03T15:27:41;14.20;42.60
29939;DHT22;16799;50.844;5.304;2023-04-03T15:30:11;13.50;44.60
29939;DHT22;16799;50.844;5.304;2023-04-03T15:32:38;13.20;45.40
29939;DHT22;16799;50.844;5.304;2023-04-03T15:35:04;13.00;46.20
29939;DHT22;16799;50.844;5.304;2023-04-03T15:37:30;13.00;46.30
29939;DHT22;16799;50.844;5.304;2023-04-03T15:39:56;12.70;47.10
29939;DHT22;16799;50.844;5.304;2023-04-03T15:42:21;12.70;49.20
29939;DHT22;16799;50.844;5.304;2023-04-03T15:44:47;12.40;47.00
29939;DHT22;16799;50.844;5.304;2023-04-03T15:47:13;12.40;47.60
29939;DHT22;16799;50.844;5.304;2023-04-03T15:49:38;12.30;47.60
29939;DHT22;16799;50.844;5.304;2023-04-03T15:52:04;11.90;45.30
29939;DHT22;16799;50.844;5.304;2023-04-03T15:54:30;11.60;47.60
29939;DHT22;16799;50.844;5.304;2023-04-03T15:56:56;11.60;51.10
29939;DHT22;16799;50.844;5.304;2023-04-03T15:59:22;11.40;49.60
29939;DHT22;16799;50.844;5.304;2023-04-03T16:01:49;11.70;50.30
29939;DHT22;16799;50.844;5.304;2023-04-03T16:04:16;11.80;48.70
29939;DHT22;16799;50.844;5.304;2023-04-03T16:06:42;11.90;49.00
29939;DHT22;16799;50.844;5.304;2023-04-03T16:09:08;12.00;48.90
29939;DHT22;16799;50.844;5.304;2023-04-03T16:11:34;11.80;49.40
29939;DHT22;16799;50.844;5.304;2023-04-03T16:14:01;11.60;48.10
29939;DHT22;16799;50.844;5.304;2023-04-03T16:16:27;11.50;50.40
29939;DHT22;16799;50.844;5.304;2023-04-03T16:18:54;11.50;52.60
29939;DHT22;16799;50.844;5.304;2023-04-03T16:21:20;11.50;50.80
29939;DHT22;16799;50.844;5.304;2023-04-03T16:23:46;11.30;50.80
29939;DHT22;16799;50.844;5.304;2023-04-03T16:26:12;11.40;52.60
29939;DHT22;16799;50.844;5.304;2023-04-03T16:28:38;11.40;51.90
29939;DHT22;16799;50.844;5.304;2023-04-03T16:31:05;11.30;52.90
29939;DHT22;16799;50.844;5.304;2023-04-03T16:33:31;11.20;53.30
29939;DHT22;16799;50.844;5.304;2023-04-03T16:35:57;11.20;51.60
29939;DHT22;16799;50.844;5.304;2023-04-03T16:38:23;11.10;52.50
29939;DHT22;16799;50.844;5.304;2023-04-03T16:40:49;11.20;54.10
29939;DHT22;16799;50.844;5.304;2023-04-03T16:43:15;11.20;53.10
29939;DHT22;16799;50.844;5.304;2023-04-03T16:45:42;11.30;55.30
29939;DHT22;16799;50.844;5.304;2023-04-03T16:48:08;11.10;51.60
29939;DHT22;16799;50.844;5.304;2023-04-03T16:50:33;11.10;52.20
29939;DHT22;16799;50.844;5.304;2023-04-03T16:52:59;10.80;51.80
29939;DHT22;16799;50.844;5.304;2023-04-03T16:55:25;10.80;53.60
29939;DHT22;16799;50.844;5.304;2023-04-03T16:57:50;10.70;55.90
29939;DHT22;16799;50.844;5.304;2023-04-03T17:00:16;10.70;52.40
29939;DHT22;16799;50.844;5.304;2023-04-03T17:02:42;10.80;53.10
29939;DHT22;16799;50.844;5.304;2023-04-03T17:05:08;10.70;51.90
29939;DHT22;16799;50.844;5.304;2023-04-03T17:07:34;11.10;54.70
29939;DHT22;16799;50.844;5.304;2023-04-03T17:10:00;12.30;53.00
29939;DHT22;16799;50.844;5.304;2023-04-03T17:12:26;12.90;49.80
29939;DHT22;16799;50.844;5.304;2023-04-03T17:14:51;13.40;47.60
29939;DHT22;16799;50.844;5.304;2023-04-03T17:17:22;13.30;45.40
29939;DHT22;16799;50.844;5.304;2023-04-03T17:19:48;13.30;46.20
29939;DHT22;16799;50.844;5.304;2023-04-03T17:22:14;13.70;49.70
29939;DHT22;16799;50.844;5.304;2023-04-03T17:24:41;14.40;46.70
29939;DHT22;16799;50.844;5.304;2023-04-03T17:27:07;14.90;45.40
29939;DHT22;16799;50.844;5.304;2023-04-03T17:29:33;15.10;46.00
29939;DHT22;16799;50.844;5.304;2023-04-03T17:31:58;14.70;43.80